sensor_id;sensor_type;location;lat;lon;timestamp;P1;durP1;ratioP1;P2;durP2;ratioP2
3916;SDS011;1973;50.518;7.318;2023-04-25T00:01:54;7.80;;;6.53;;
3916;SDS011;1973;50.518;7.318;2023-04-25T00:04:20;8.63;;;6.43;;
3916;SDS011;1973;50.518;7.318;2023-04-25T00:06:48;10.43;;;7.17;;
3916;SDS011;1973;50.518;7.318;2023-04-25T00:09:14;9.47;;;6.10;;
3916;SDS011;1973;50.518;7.318;2023-04-25T00:11:41;7.73;;;6.93;;
3916;SDS011;1973;50.518;7.318;2023-04-25T00:14:07;8.60;;;7.23;;
3916;SDS011;1973;50.518;7.318;2023-04-25T00:16:34;7.80;;;6.97;;
3916;SDS011;1973;50.518;7.318;2023-04-25T00:19:02;12.33;;;6.93;;
3916;SDS011;1973;50.518;7.318;2023-04-25T00:21:29;8.83;;;6.80;;
3916;SDS011;1973;50.518;7.318;2023-04-25T00:23:57;11.80;;;6.03;;
3916;SDS011;1973;50.518;7.318;2023-04-25T00:26:24;12.47;;;7.80;;
3916;SDS011;1973;50.518;7.318;2023-04-25T00:28:51;12.93;;;6.30;;
3916;SDS011;1973;50.518;7.318;2023-04-25T00:31:17;7.60;;;5.80;;
3916;SDS011;1973;50.518;7.318;2023-04-25T00:33:44;9.00;;;6.73;;
3916;SDS011;1973;50.518;7.318;2023-04-25T00:36:10;7.70;;;6.33;;
3916;SDS011;1973;50.518;7.318;2023-04-25T00:38:37;7.80;;;5.90;;
3916;SDS011;1973;50.518;7.318;2023-04-25T00:41:05;10.40;;;6.77;;
3916;SDS011;1973;50.518;7.318;2023-04-25T00:43:33;9.60;;;6.40;;
3916;SDS011;1973;50.518;7.318;2023-04-25T00:46:00;8.63;;;6.47;;
3916;SDS011;1973;50.518;7.318;2023-04-25T00:48:27;9.67;;;6.73;;
3916;SDS011;1973;50.518;7.318;2023-04-25T00:50:55;7.57;;;6.07;;
3916;SDS011;1973;50.518;7.318;2023-04-25T00:53:25;9.10;;;6.40;;
3916;SDS011;1973;50.518;7.318;2023-04-25T00:55:53;11.03;;;6.37;;
3916;SDS011;1973;50.518;7.318;2023-04-25T00:58:20;9.00;;;6.73;;
3916;SDS011;1973;50.518;7.318;2023-04-25T01:00:48;10.10;;;6.27;;
3916;SDS011;1973;50.518;7.318;2023-04-25T01:03:16;9.90;;;6.30;;
3916;SDS011;1973;50.518;7.318;2023-04-25T01:05:46;7.00;;;5.60;;
3916;SDS011;1973;50.518;7.318;2023-04-25T01:08:13;7.47;;;6.23;;
3916;SDS011;1973;50.518;7.318;2023-04-25T01:10:40;8.60;;;6.13;;
3916;SDS011;1973;50.518;7.318;2023-04-25T01:13:07;9.40;;;6.90;;
3916;SDS011;1973;50.518;7.318;2023-04-25T01:15:33;7.93;;;6.30;;
3916;SDS011;1973;50.518;7.318;2023-04-25T01:18:02;9.97;;;6.50;;
3916;SDS011;1973;50.518;7.318;2023-04-25T01:20:29;13.33;;;5.67;;
3916;SDS011;1973;50.518;7.318;2023-04-25T01:22:58;9.10;;;5.40;;
3916;SDS011;1973;50.518;7.318;2023-04-25T01:25:25;11.70;;;5.63;;
3916;SDS011;1973;50.518;7.318;2023-04-25T01:27:52;8.03;;;5.80;;
3916;SDS011;1973;50.518;7.318;2023-04-25T01:30:18;7.73;;;5.63;;
3916;SDS011;1973;50.518;7.318;2023-04-25T01:32:45;9.17;;;5.77;;
3916;SDS011;1973;50.518;7.318;2023-04-25T01:35:13;8.40;;;5.10;;
3916;SDS011;1973;50.518;7.318;2023-04-25T01:37:40;6.77;;;5.43;;
3916;SDS011;1973;50.518;7.318;2023-04-25T01:40:11;8.47;;;6.10;;
3916;SDS011;1973;50.518;7.318;2023-04-25T01:42:40;7.77;;;5.30;;
3916;SDS011;1973;50.518;7.318;2023-04-25T01:45:08;9.43;;;4.83;;
3916;SDS011;1973;50.518;7.318;2023-04-25T01:47:37;8.70;;;5.20;;
3916;SDS011;1973;50.518;7.318;2023-04-25T01:50:06;12.60;;;6.13;;
3916;SDS011;1973;50.518;7.318;2023-04-25T01:52:33;7.13;;;5.03;;
3916;SDS011;1973;50.518;7.318;2023-04-25T01:55:03;10.37;;;5.47;;
3916;SDS011;1973;50.518;7.318;2023-04-25T01:57:30;10.70;;;5.37;;
3916;SDS011;1973;50.518;7.318;2023-04-25T01:59:58;11.83;;;5.30;;
3916;SDS011;1973;50.518;7.318;2023-04-25T02:02:27;11.63;;;5.47;;
3916;SDS011;1973;50.518;7.318;2023-04-25T02:04:53;8.37;;;3.90;;
3916;SDS011;1973;50.518;7.318;2023-04-25T02:07:20;7.33;;;5.43;;
3916;SDS011;1973;50.518;7.318;2023-04-25T02:09:47;8.63;;;5.63;;
3916;SDS011;1973;50.518;7.318;2023-04-25T02:12:13;9.40;;;5.83;;
3916;SDS011;1973;50.518;7.318;2023-04-25T02:14:40;7.80;;;4.63;;
3916;SDS011;1973;50.518;7.318;2023-04-25T02:17:06;6.93;;;4.93;;
3916;SDS011;1973;50.518;7.318;2023-04-25T02:19:33;7.43;;;5.10;;
3916;SDS011;1973;50.518;7.318;2023-04-25T02:22:00;14.23;;;5.40;;
3916;SDS011;1973;50.518;7.318;2023-04-25T02:24:26;10.57;;;5.33;;
3916;SDS011;1973;50.518;7.318;2023-04-25T02:26:54;9.90;;;5.90;;
3916;SDS011;1973;50.518;7.318;2023-04-25T02:29:22;12.50;;;5.97;;
3916;SDS011;1973;50.518;7.318;2023-04-25T02:31:49;10.87;;;5.70;;
3916;SDS011;1973;50.518;7.318;2023-04-25T02:34:16;9.30;;;5.80;;
3916;SDS011;1973;50.518;7.318;2023-04-25T02:36:42;9.33;;;4.80;;
3916;SDS011;1973;50.518;7.318;2023-04-25T02:39:09;19.37;;;6.37;;
3916;SDS011;1973;50.518;7.318;2023-04-25T02:41:36;11.00;;;5.30;;
3916;SDS011;1973;50.518;7.318;2023-04-25T02:44:03;8.27;;;5.23;;
3916;SDS011;1973;50.518;7.318;2023-04-25T02:46:29;7.53;;;5.13;;
3916;SDS011;1973;50.518;7.318;2023-04-25T02:49:05;8.87;;;5.07;;
3916;SDS011;1973;50.518;7.318;2023-04-25T02:51:32;10.50;;;5.07;;
3916;SDS011;1973;50.518;7.318;2023-04-25T02:53:58;8.27;;;5.10;;
3916;SDS011;1973;50.518;7.318;2023-04-25T02:56:25;6.83;;;4.80;;
3916;SDS011;1973;50.518;7.318;2023-04-25T02:58:52;8.60;;;5.40;;
3916;SDS011;1973;50.518;7.318;2023-04-25T03:01:19;9.93;;;4.90;;
3916;SDS011;1973;50.518;7.318;2023-04-25T03:03:46;10.13;;;5.00;;
3916;SDS011;1973;50.518;7.318;2023-04-25T03:06:13;9.40;;;5.50;;
3916;SDS011;1973;50.518;7.318;2023-04-25T03:08:40;11.60;;;6.10;;
3916;SDS011;1973;50.518;7.318;2023-04-25T03:11:06;13.63;;;5.80;;
3916;SDS011;1973;50.518;7.318;2023-04-25T03:13:32;10.47;;;5.20;;
3916;SDS011;1973;50.518;7.318;2023-04-25T03:15:59;10.80;;;5.33;;
3916;SDS011;1973;50.518;7.318;2023-04-25T03:18:26;11.63;;;5.20;;
3916;SDS011;1973;50.518;7.318;2023-04-25T03:20:52;13.00;;;5.40;;
3916;SDS011;1973;50.518;7.318;2023-04-25T03:23:19;9.00;;;5.50;;
3916;SDS011;1973;50.518;7.318;2023-04-25T03:25:45;9.13;;;5.80;;
3916;SDS011;1973;50.518;7.318;2023-04-25T03:28:12;13.00;;;7.37;;
3916;SDS011;1973;50.518;7.318;2023-04-25T03:30:38;12.00;;;7.43;;
3916;SDS011;1973;50.518;7.318;2023-04-25T03:33:05;10.13;;;6.70;;
3916;SDS011;1973;50.518;7.318;2023-04-25T03:35:31;13.27;;;6.50;;
3916;SDS011;1973;50.518;7.318;2023-04-25T03:37:58;11.90;;;6.73;;
3916;SDS011;1973;50.518;7.318;2023-04-25T03:40:24;9.03;;;6.20;;
3916;SDS011;1973;50.518;7.318;2023-04-25T03:42:51;9.97;;;5.13;;
3916;SDS011;1973;50.518;7.318;2023-04-25T03:45:17;11.63;;;6.37;;
3916;SDS011;1973;50.518;7.318;2023-04-25T03:47:43;9.27;;;5.63;;
3916;SDS011;1973;50.518;7.318;2023-04-25T03:50:10;8.77;;;5.40;;
3916;SDS011;1973;50.518;7.318;2023-04-25T03:52:37;8.80;;;5.70;;
3916;SDS011;1973;50.518;7.318;2023-04-25T03:55:03;9.23;;;6.00;;
3916;SDS011;1973;50.518;7.318;2023-04-25T03:57:30;15.33;;;5.83;;
3916;SDS011;1973;50.518;7.318;2023-04-25T03:59:57;10.63;;;5.13;;
3916;SDS011;1973;50.518;7.318;2023-04-25T04:02:23;7.50;;;5.43;;
3916;SDS011;1973;50.518;7.318;2023-04-25T04:04:50;10.47;;;6.40;;
3916;SDS011;1973;50.518;7.318;2023-04-25T04:07:17;10.13;;;7.47;;
3916;SDS011;1973;50.518;7.318;2023-04-25T04:09:43;10.73;;;6.33;;
3916;SDS011;1973;50.518;7.318;2023-04-25T04:12:10;13.47;;;6.13;;
3916;SDS011;1973;50.518;7.318;2023-04-25T04:14:36;12.90;;;6.40;;
3916;SDS011;1973;50.518;7.318;2023-04-25T04:17:03;13.27;;;6.60;;
3916;SDS011;1973;50.518;7.318;2023-04-25T04:19:29;8.80;;;5.57;;
3916;SDS011;1973;50.518;7.318;2023-04-25T04:21:56;7.27;;;5.37;;
3916;SDS011;1973;50.518;7.318;2023-04-25T04:24:22;10.10;;;6.30;;
3916;SDS011;1973;50.518;7.318;2023-04-25T04:26:48;8.50;;;7.07;;
3916;SDS011;1973;50.518;7.318;2023-04-25T04:29:16;12.40;;;7.10;;
3916;SDS011;1973;50.518;7.318;2023-04-25T04:31:47;9.00;;;5.87;;
3916;SDS011;1973;50.518;7.318;2023-04-25T04:34:16;9.20;;;6.30;;
3916;SDS011;1973;50.518;7.318;2023-04-25T04:36:44;8.30;;;5.37;;
3916;SDS011;1973;50.518;7.318;2023-04-25T04:39:12;11.00;;;5.20;;
3916;SDS011;1973;50.518;7.318;2023-04-25T04:41:39;10.73;;;7.00;;
3916;SDS011;1973;50.518;7.318;2023-04-25T04:44:06;9.37;;;6.53;;
3916;SDS011;1973;50.518;7.318;2023-04-25T04:46:35;13.27;;;6.40;;
3916;SDS011;1973;50.518;7.318;2023-04-25T04:49:13;8.13;;;5.63;;
3916;SDS011;1973;50.518;7.318;2023-04-25T04:51:43;13.80;;;7.43;;
3916;SDS011;1973;50.518;7.318;2023-04-25T04:54:13;11.10;;;6.70;;
3916;SDS011;1973;50.518;7.318;2023-04-25T04:56:39;10.23;;;6.50;;
3916;SDS011;1973;50.518;7.318;2023-04-25T04:59:06;13.10;;;7.37;;
3916;SDS011;1973;50.518;7.318;2023-04-25T05:01:33;11.40;;;7.57;;
3916;SDS011;1973;50.518;7.318;2023-04-25T05:04:02;17.60;;;8.33;;
3916;SDS011;1973;50.518;7.318;2023-04-25T05:06:29;13.10;;;7.87;;
3916;SDS011;1973;50.518;7.318;2023-04-25T05:08:57;13.43;;;7.20;;
3916;SDS011;1973;50.518;7.318;2023-04-25T05:11:24;14.30;;;9.33;;
3916;SDS011;1973;50.518;7.318;2023-04-25T05:13:54;19.80;;;9.23;;
3916;SDS011;1973;50.518;7.318;2023-04-25T05:16:20;13.10;;;7.40;;
3916;SDS011;1973;50.518;7.318;2023-04-25T05:18:47;12.90;;;6.57;;
3916;SDS011;1973;50.518;7.318;2023-04-25T05:21:14;14.13;;;7.10;;
3916;SDS011;1973;50.518;7.318;2023-04-25T05:23:40;11.20;;;6.20;;
3916;SDS011;1973;50.518;7.318;2023-04-25T05:26:06;18.63;;;7.23;;
3916;SDS011;1973;50.518;7.318;2023-04-25T05:28:40;11.00;;;6.20;;
3916;SDS011;1973;50.518;7.318;2023-04-25T05:31:09;13.73;;;6.77;;
3916;SDS011;1973;50.518;7.318;2023-04-25T05:33:36;12.17;;;7.70;;
3916;SDS011;1973;50.518;7.318;2023-04-25T05:36:03;16.03;;;8.10;;
3916;SDS011;1973;50.518;7.318;2023-04-25T05:38:29;14.37;;;7.30;;
3916;SDS011;1973;50.518;7.318;2023-04-25T05:40:59;11.30;;;6.70;;
3916;SDS011;1973;50.518;7.318;2023-04-25T05:43:26;14.70;;;7.30;;
3916;SDS011;1973;50.518;7.318;2023-04-25T05:45:52;11.20;;;6.97;;
3916;SDS011;1973;50.518;7.318;2023-04-25T05:48:19;16.80;;;7.10;;
3916;SDS011;1973;50.518;7.318;2023-04-25T05:50:45;12.37;;;6.77;;
3916;SDS011;1973;50.518;7.318;2023-04-25T05:53:12;10.57;;;7.43;;
3916;SDS011;1973;50.518;7.318;2023-04-25T05:55:38;12.80;;;6.60;;
3916;SDS011;1973;50.518;7.318;2023-04-25T05:58:05;14.17;;;6.70;;
3916;SDS011;1973;50.518;7.318;2023-04-25T06:00:35;15.00;;;7.00;;
3916;SDS011;1973;50.518;7.318;2023-04-25T06:03:01;13.63;;;6.93;;
3916;SDS011;1973;50.518;7.318;2023-04-25T06:05:28;13.40;;;6.93;;
3916;SDS011;1973;50.518;7.318;2023-04-25T06:07:55;13.10;;;7.00;;
3916;SDS011;1973;50.518;7.318;2023-04-25T06:10:22;14.33;;;6.60;;
3916;SDS011;1973;50.518;7.318;2023-04-25T06:12:48;13.10;;;6.73;;
3916;SDS011;1973;50.518;7.318;2023-04-25T06:15:15;17.47;;;6.13;;
3916;SDS011;1973;50.518;7.318;2023-04-25T06:17:54;11.90;;;6.43;;
3916;SDS011;1973;50.518;7.318;2023-04-25T06:20:21;12.70;;;7.10;;
3916;SDS011;1973;50.518;7.318;2023-04-25T06:22:50;14.80;;;7.40;;
3916;SDS011;1973;50.518;7.318;2023-04-25T06:25:20;15.40;;;6.27;;
3916;SDS011;1973;50.518;7.318;2023-04-25T06:27:47;14.07;;;6.17;;
3916;SDS011;1973;50.518;7.318;2023-04-25T06:30:13;15.00;;;6.23;;
3916;SDS011;1973;50.518;7.318;2023-04-25T06:32:40;14.57;;;7.47;;
3916;SDS011;1973;50.518;7.318;2023-04-25T06:35:06;11.37;;;6.83;;
3916;SDS011;1973;50.518;7.318;2023-04-25T06:37:33;17.07;;;7.43;;
3916;SDS011;1973;50.518;7.318;2023-04-25T06:40:00;15.80;;;6.80;;
3916;SDS011;1973;50.518;7.318;2023-04-25T06:42:26;24.93;;;7.90;;
3916;SDS011;1973;50.518;7.318;2023-04-25T06:44:52;12.17;;;7.00;;
3916;SDS011;1973;50.518;7.318;2023-04-25T06:47:19;14.17;;;7.50;;
3916;SDS011;1973;50.518;7.318;2023-04-25T06:49:45;13.50;;;6.93;;
3916;SDS011;1973;50.518;7.318;2023-04-25T06:52:12;14.13;;;6.97;;
3916;SDS011;1973;50.518;7.318;2023-04-25T06:54:38;16.63;;;8.30;;
3916;SDS011;1973;50.518;7.318;2023-04-25T06:57:05;18.80;;;7.77;;
3916;SDS011;1973;50.518;7.318;2023-04-25T06:59:31;12.60;;;6.30;;
3916;SDS011;1973;50.518;7.318;2023-04-25T07:01:58;15.13;;;7.10;;
3916;SDS011;1973;50.518;7.318;2023-04-25T07:04:25;14.10;;;6.67;;
3916;SDS011;1973;50.518;7.318;2023-04-25T07:06:52;15.50;;;8.20;;
3916;SDS011;1973;50.518;7.318;2023-04-25T07:09:19;18.03;;;8.63;;
3916;SDS011;1973;50.518;7.318;2023-04-25T07:11:45;19.10;;;8.80;;
3916;SDS011;1973;50.518;7.318;2023-04-25T07:14:12;15.83;;;7.40;;
3916;SDS011;1973;50.518;7.318;2023-04-25T07:16:38;14.70;;;7.90;;
3916;SDS011;1973;50.518;7.318;2023-04-25T07:19:05;23.10;;;9.30;;
3916;SDS011;1973;50.518;7.318;2023-04-25T07:21:32;15.47;;;7.60;;
3916;SDS011;1973;50.518;7.318;2023-04-25T07:23:58;14.80;;;7.37;;
3916;SDS011;1973;50.518;7.318;2023-04-25T07:26:25;17.60;;;7.33;;
3916;SDS011;1973;50.518;7.318;2023-04-25T07:28:51;18.47;;;7.97;;
3916;SDS011;1973;50.518;7.318;2023-04-25T07:31:18;14.63;;;7.00;;
3916;SDS011;1973;50.518;7.318;2023-04-25T07:33:44;17.53;;;7.33;;
3916;SDS011;1973;50.518;7.318;2023-04-25T07:36:12;14.33;;;7.50;;
3916;SDS011;1973;50.518;7.318;2023-04-25T07:38:39;13.30;;;6.67;;
3916;SDS011;1973;50.518;7.318;2023-04-25T07:41:05;13.40;;;6.20;;
3916;SDS011;1973;50.518;7.318;2023-04-25T07:43:32;14.80;;;6.70;;
3916;SDS011;1973;50.518;7.318;2023-04-25T07:45:58;14.40;;;6.03;;
3916;SDS011;1973;50.518;7.318;2023-04-25T07:48:25;12.43;;;5.20;;
3916;SDS011;1973;50.518;7.318;2023-04-25T07:50:51;14.27;;;5.70;;
3916;SDS011;1973;50.518;7.318;2023-04-25T07:53:18;16.53;;;6.57;;
3916;SDS011;1973;50.518;7.318;2023-04-25T07:55:44;11.50;;;6.17;;
3916;SDS011;1973;50.518;7.318;2023-04-25T07:58:11;15.80;;;5.57;;
3916;SDS011;1973;50.518;7.318;2023-04-25T08:00:38;26.37;;;5.53;;
3916;SDS011;1973;50.518;7.318;2023-04-25T08:03:04;15.13;;;5.87;;
3916;SDS011;1973;50.518;7.318;2023-04-25T08:05:31;13.00;;;5.43;;
3916;SDS011;1973;50.518;7.318;2023-04-25T08:07:57;15.50;;;5.40;;
3916;SDS011;1973;50.518;7.318;2023-04-25T08:10:25;11.53;;;5.40;;
3916;SDS011;1973;50.518;7.318;2023-04-25T08:12:51;11.13;;;5.10;;
3916;SDS011;1973;50.518;7.318;2023-04-25T08:15:18;18.20;;;5.60;;
3916;SDS011;1973;50.518;7.318;2023-04-25T08:17:44;10.67;;;4.67;;
3916;SDS011;1973;50.518;7.318;2023-04-25T08:20:11;13.93;;;4.10;;
3916;SDS011;1973;50.518;7.318;2023-04-25T08:22:38;15.03;;;5.03;;
3916;SDS011;1973;50.518;7.318;2023-04-25T08:25:04;7.60;;;4.23;;
3916;SDS011;1973;50.518;7.318;2023-04-25T08:27:31;10.50;;;4.83;;
3916;SDS011;1973;50.518;7.318;2023-04-25T08:29:57;9.97;;;3.97;;
3916;SDS011;1973;50.518;7.318;2023-04-25T08:32:24;16.17;;;4.43;;
3916;SDS011;1973;50.518;7.318;2023-04-25T08:34:51;9.03;;;4.90;;
3916;SDS011;1973;50.518;7.318;2023-04-25T08:37:20;14.30;;;4.33;;
3916;SDS011;1973;50.518;7.318;2023-04-25T08:39:47;10.33;;;4.50;;
3916;SDS011;1973;50.518;7.318;2023-04-25T08:42:18;10.20;;;4.17;;
3916;SDS011;1973;50.518;7.318;2023-04-25T08:44:45;11.03;;;5.37;;
3916;SDS011;1973;50.518;7.318;2023-04-25T08:47:14;11.20;;;5.00;;
3916;SDS011;1973;50.518;7.318;2023-04-25T08:49:43;8.87;;;3.37;;
3916;SDS011;1973;50.518;7.318;2023-04-25T08:52:12;11.63;;;4.57;;
3916;SDS011;1973;50.518;7.318;2023-04-25T08:54:45;13.00;;;3.80;;
3916;SDS011;1973;50.518;7.318;2023-04-25T08:57:14;12.70;;;3.97;;
3916;SDS011;1973;50.518;7.318;2023-04-25T08:59:41;8.00;;;3.90;;
3916;SDS011;1973;50.518;7.318;2023-04-25T09:02:12;8.40;;;3.90;;
3916;SDS011;1973;50.518;7.318;2023-04-25T09:04:44;10.17;;;4.40;;
3916;SDS011;1973;50.518;7.318;2023-04-25T09:07:10;13.93;;;5.53;;
3916;SDS011;1973;50.518;7.318;2023-04-25T09:09:37;13.30;;;4.77;;
3916;SDS011;1973;50.518;7.318;2023-04-25T09:12:03;12.80;;;4.80;;
3916;SDS011;1973;50.518;7.318;2023-04-25T09:14:31;9.33;;;4.27;;
3916;SDS011;1973;50.518;7.318;2023-04-25T09:19:27;8.50;;;4.20;;
3916;SDS011;1973;50.518;7.318;2023-04-25T09:22:06;14.00;;;4.60;;
3916;SDS011;1973;50.518;7.318;2023-04-25T09:24:37;18.47;;;4.90;;
3916;SDS011;1973;50.518;7.318;2023-04-25T09:27:07;9.70;;;3.30;;
3916;SDS011;1973;50.518;7.318;2023-04-25T09:29:36;8.47;;;3.90;;
3916;SDS011;1973;50.518;7.318;2023-04-25T09:34:47;4.43;;;3.20;;
3916;SDS011;1973;50.518;7.318;2023-04-25T09:37:18;10.80;;;3.10;;
3916;SDS011;1973;50.518;7.318;2023-04-25T09:39:51;9.90;;;3.33;;
3916;SDS011;1973;50.518;7.318;2023-04-25T09:42:23;13.67;;;3.50;;
3916;SDS011;1973;50.518;7.318;2023-04-25T09:44:52;6.57;;;3.10;;
3916;SDS011;1973;50.518;7.318;2023-04-25T09:47:20;7.37;;;3.23;;
3916;SDS011;1973;50.518;7.318;2023-04-25T09:49:49;14.30;;;4.33;;
3916;SDS011;1973;50.518;7.318;2023-04-25T09:52:23;8.33;;;3.80;;
3916;SDS011;1973;50.518;7.318;2023-04-25T09:54:51;10.43;;;4.07;;
3916;SDS011;1973;50.518;7.318;2023-04-25T09:57:20;9.93;;;3.93;;
3916;SDS011;1973;50.518;7.318;2023-04-25T09:59:48;9.90;;;3.53;;
3916;SDS011;1973;50.518;7.318;2023-04-25T10:02:17;6.97;;;3.20;;
3916;SDS011;1973;50.518;7.318;2023-04-25T10:04:50;13.50;;;4.70;;
3916;SDS011;1973;50.518;7.318;2023-04-25T10:07:24;9.50;;;5.00;;
3916;SDS011;1973;50.518;7.318;2023-04-25T10:09:58;8.30;;;3.57;;
3916;SDS011;1973;50.518;7.318;2023-04-25T10:12:28;9.43;;;4.20;;
3916;SDS011;1973;50.518;7.318;2023-04-25T10:14:54;8.90;;;3.73;;
3916;SDS011;1973;50.518;7.318;2023-04-25T10:17:21;10.17;;;4.83;;
3916;SDS011;1973;50.518;7.318;2023-04-25T10:19:48;10.33;;;3.17;;
3916;SDS011;1973;50.518;7.318;2023-04-25T10:22:20;10.13;;;4.33;;
3916;SDS011;1973;50.518;7.318;2023-04-25T10:24:52;13.40;;;4.20;;
3916;SDS011;1973;50.518;7.318;2023-04-25T10:27:19;8.90;;;4.10;;
3916;SDS011;1973;50.518;7.318;2023-04-25T10:29:46;12.13;;;4.20;;
3916;SDS011;1973;50.518;7.318;2023-04-25T10:32:42;6.53;;;3.83;;
3916;SDS011;1973;50.518;7.318;2023-04-25T10:35:30;6.83;;;3.70;;
3916;SDS011;1973;50.518;7.318;2023-04-25T10:38:00;9.07;;;3.70;;
3916;SDS011;1973;50.518;7.318;2023-04-25T10:40:29;11.20;;;4.17;;
3916;SDS011;1973;50.518;7.318;2023-04-25T10:42:56;12.53;;;3.60;;
3916;SDS011;1973;50.518;7.318;2023-04-25T10:46:01;9.80;;;3.33;;
3916;SDS011;1973;50.518;7.318;2023-04-25T10:48:28;9.93;;;3.93;;
3916;SDS011;1973;50.518;7.318;2023-04-25T10:51:12;9.37;;;4.17;;
3916;SDS011;1973;50.518;7.318;2023-04-25T10:56:28;6.77;;;3.63;;
3916;SDS011;1973;50.518;7.318;2023-04-25T10:59:10;6.43;;;4.30;;
3916;SDS011;1973;50.518;7.318;2023-04-25T11:01:43;8.43;;;3.30;;
3916;SDS011;1973;50.518;7.318;2023-04-25T11:04:23;9.00;;;3.60;;
3916;SDS011;1973;50.518;7.318;2023-04-25T11:09:34;10.87;;;3.87;;
3916;SDS011;1973;50.518;7.318;2023-04-25T11:12:01;12.60;;;3.97;;
3916;SDS011;1973;50.518;7.318;2023-04-25T11:14:28;4.90;;;2.90;;
3916;SDS011;1973;50.518;7.318;2023-04-25T11:16:54;7.57;;;3.27;;
3916;SDS011;1973;50.518;7.318;2023-04-25T11:19:26;5.70;;;3.33;;
3916;SDS011;1973;50.518;7.318;2023-04-25T11:22:00;6.57;;;2.67;;
3916;SDS011;1973;50.518;7.318;2023-04-25T11:24:29;5.27;;;2.63;;
3916;SDS011;1973;50.518;7.318;2023-04-25T11:27:00;7.70;;;3.17;;
3916;SDS011;1973;50.518;7.318;2023-04-25T11:29:30;6.70;;;2.97;;
3916;SDS011;1973;50.518;7.318;2023-04-25T11:32:01;6.40;;;3.00;;
3916;SDS011;1973;50.518;7.318;2023-04-25T11:34:29;4.87;;;2.33;;
3916;SDS011;1973;50.518;7.318;2023-04-25T11:36:57;7.30;;;2.57;;
3916;SDS011;1973;50.518;7.318;2023-04-25T11:39:24;7.10;;;2.57;;
3916;SDS011;1973;50.518;7.318;2023-04-25T11:41:52;6.03;;;2.70;;
3916;SDS011;1973;50.518;7.318;2023-04-25T11:44:19;5.23;;;2.33;;
3916;SDS011;1973;50.518;7.318;2023-04-25T11:46:46;7.77;;;3.57;;
3916;SDS011;1973;50.518;7.318;2023-04-25T11:49:13;7.80;;;3.50;;
3916;SDS011;1973;50.518;7.318;2023-04-25T11:51:41;6.10;;;3.10;;
3916;SDS011;1973;50.518;7.318;2023-04-25T11:54:09;6.47;;;3.03;;
3916;SDS011;1973;50.518;7.318;2023-04-25T11:56:40;6.53;;;3.50;;
3916;SDS011;1973;50.518;7.318;2023-04-25T11:59:08;8.57;;;2.97;;
3916;SDS011;1973;50.518;7.318;2023-04-25T12:01:37;7.40;;;2.87;;
3916;SDS011;1973;50.518;7.318;2023-04-25T12:04:23;6.50;;;2.30;;
3916;SDS011;1973;50.518;7.318;2023-04-25T12:06:52;8.73;;;2.90;;
3916;SDS011;1973;50.518;7.318;2023-04-25T12:09:20;12.07;;;3.07;;
3916;SDS011;1973;50.518;7.318;2023-04-25T12:11:54;6.30;;;2.67;;
3916;SDS011;1973;50.518;7.318;2023-04-25T12:14:28;5.17;;;2.10;;
3916;SDS011;1973;50.518;7.318;2023-04-25T12:16:56;8.23;;;2.53;;
3916;SDS011;1973;50.518;7.318;2023-04-25T12:19:24;10.43;;;3.40;;
3916;SDS011;1973;50.518;7.318;2023-04-25T12:21:52;6.77;;;2.80;;
3916;SDS011;1973;50.518;7.318;2023-04-25T12:24:25;5.93;;;2.47;;
3916;SDS011;1973;50.518;7.318;2023-04-25T12:26:59;4.93;;;2.30;;
3916;SDS011;1973;50.518;7.318;2023-04-25T12:29:31;6.93;;;3.37;;
3916;SDS011;1973;50.518;7.318;2023-04-25T12:32:13;6.67;;;2.73;;
3916;SDS011;1973;50.518;7.318;2023-04-25T12:34:39;7.27;;;3.50;;
3916;SDS011;1973;50.518;7.318;2023-04-25T12:37:06;6.73;;;3.00;;
3916;SDS011;1973;50.518;7.318;2023-04-25T12:39:32;8.30;;;2.83;;
3916;SDS011;1973;50.518;7.318;2023-04-25T12:41:59;6.90;;;2.50;;
3916;SDS011;1973;50.518;7.318;2023-04-25T12:44:25;7.43;;;2.77;;
3916;SDS011;1973;50.518;7.318;2023-04-25T12:46:52;6.77;;;2.53;;
3916;SDS011;1973;50.518;7.318;2023-04-25T12:49:20;5.50;;;2.23;;
3916;SDS011;1973;50.518;7.318;2023-04-25T12:51:47;4.60;;;2.60;;
3916;SDS011;1973;50.518;7.318;2023-04-25T12:54:13;6.90;;;3.83;;
3916;SDS011;1973;50.518;7.318;2023-04-25T12:56:40;6.53;;;3.33;;
3916;SDS011;1973;50.518;7.318;2023-04-25T12:59:07;6.60;;;3.10;;
3916;SDS011;1973;50.518;7.318;2023-04-25T13:01:33;8.07;;;2.87;;
3916;SDS011;1973;50.518;7.318;2023-04-25T13:04:02;13.90;;;3.27;;
3916;SDS011;1973;50.518;7.318;2023-04-25T13:06:28;4.63;;;2.37;;
3916;SDS011;1973;50.518;7.318;2023-04-25T13:08:58;5.37;;;3.10;;
3916;SDS011;1973;50.518;7.318;2023-04-25T13:11:24;4.30;;;2.67;;
3916;SDS011;1973;50.518;7.318;2023-04-25T13:13:51;7.23;;;2.97;;
3916;SDS011;1973;50.518;7.318;2023-04-25T13:16:18;5.43;;;3.20;;
3916;SDS011;1973;50.518;7.318;2023-04-25T13:18:47;7.33;;;2.80;;
3916;SDS011;1973;50.518;7.318;2023-04-25T13:21:13;6.53;;;2.70;;
3916;SDS011;1973;50.518;7.318;2023-04-25T13:23:40;8.23;;;3.67;;
3916;SDS011;1973;50.518;7.318;2023-04-25T13:26:08;5.40;;;2.87;;
3916;SDS011;1973;50.518;7.318;2023-04-25T13:28:35;5.10;;;2.67;;
3916;SDS011;1973;50.518;7.318;2023-04-25T13:31:01;4.80;;;2.53;;
3916;SDS011;1973;50.518;7.318;2023-04-25T13:33:28;8.07;;;2.40;;
3916;SDS011;1973;50.518;7.318;2023-04-25T13:35:55;5.70;;;2.80;;
3916;SDS011;1973;50.518;7.318;2023-04-25T13:38:23;5.67;;;2.53;;
3916;SDS011;1973;50.518;7.318;2023-04-25T13:40:51;4.90;;;2.10;;
3916;SDS011;1973;50.518;7.318;2023-04-25T13:43:19;8.07;;;2.30;;
3916;SDS011;1973;50.518;7.318;2023-04-25T13:45:50;9.33;;;2.03;;
3916;SDS011;1973;50.518;7.318;2023-04-25T13:48:18;5.00;;;2.70;;
3916;SDS011;1973;50.518;7.318;2023-04-25T13:50:45;5.87;;;2.83;;
3916;SDS011;1973;50.518;7.318;2023-04-25T13:53:11;4.43;;;2.33;;
3916;SDS011;1973;50.518;7.318;2023-04-25T13:55:38;7.20;;;2.10;;
3916;SDS011;1973;50.518;7.318;2023-04-25T13:58:05;6.50;;;2.40;;
3916;SDS011;1973;50.518;7.318;2023-04-25T14:00:36;6.27;;;2.20;;
3916;SDS011;1973;50.518;7.318;2023-04-25T14:03:05;6.17;;;2.03;;
3916;SDS011;1973;50.518;7.318;2023-04-25T14:05:34;5.80;;;2.40;;
3916;SDS011;1973;50.518;7.318;2023-04-25T14:08:06;4.60;;;2.07;;
3916;SDS011;1973;50.518;7.318;2023-04-25T14:10:33;8.63;;;2.13;;
3916;SDS011;1973;50.518;7.318;2023-04-25T14:13:00;4.73;;;2.07;;
3916;SDS011;1973;50.518;7.318;2023-04-25T14:15:27;4.27;;;2.20;;
3916;SDS011;1973;50.518;7.318;2023-04-25T14:17:53;11.40;;;2.90;;
3916;SDS011;1973;50.518;7.318;2023-04-25T14:20:20;5.27;;;1.93;;
3916;SDS011;1973;50.518;7.318;2023-04-25T14:22:47;4.97;;;2.47;;
3916;SDS011;1973;50.518;7.318;2023-04-25T14:25:13;7.97;;;2.37;;
3916;SDS011;1973;50.518;7.318;2023-04-25T14:27:40;8.33;;;2.87;;
3916;SDS011;1973;50.518;7.318;2023-04-25T14:30:07;7.10;;;3.00;;
3916;SDS011;1973;50.518;7.318;2023-04-25T14:32:35;7.50;;;2.90;;
3916;SDS011;1973;50.518;7.318;2023-04-25T14:35:01;4.87;;;2.60;;
3916;SDS011;1973;50.518;7.318;2023-04-25T14:37:28;10.10;;;2.70;;
3916;SDS011;1973;50.518;7.318;2023-04-25T14:39:54;6.40;;;2.40;;
3916;SDS011;1973;50.518;7.318;2023-04-25T14:42:21;9.23;;;3.07;;
3916;SDS011;1973;50.518;7.318;2023-04-25T14:44:47;10.30;;;3.13;;
3916;SDS011;1973;50.518;7.318;2023-04-25T14:47:14;6.03;;;2.50;;
3916;SDS011;1973;50.518;7.318;2023-04-25T14:49:41;5.43;;;2.50;;
3916;SDS011;1973;50.518;7.318;2023-04-25T14:52:08;8.13;;;2.37;;
3916;SDS011;1973;50.518;7.318;2023-04-25T14:54:34;5.80;;;3.30;;
3916;SDS011;1973;50.518;7.318;2023-04-25T14:57:01;8.93;;;2.70;;
3916;SDS011;1973;50.518;7.318;2023-04-25T14:59:28;5.40;;;2.13;;
3916;SDS011;1973;50.518;7.318;2023-04-25T15:01:54;8.83;;;3.97;;
3916;SDS011;1973;50.518;7.318;2023-04-25T15:04:24;3.63;;;2.50;;
3916;SDS011;1973;50.518;7.318;2023-04-25T15:06:52;7.70;;;2.97;;
3916;SDS011;1973;50.518;7.318;2023-04-25T15:09:18;7.37;;;2.13;;
3916;SDS011;1973;50.518;7.318;2023-04-25T15:11:45;7.37;;;2.60;;
3916;SDS011;1973;50.518;7.318;2023-04-25T15:14:11;5.63;;;2.50;;
3916;SDS011;1973;50.518;7.318;2023-04-25T15:16:38;4.43;;;2.53;;
3916;SDS011;1973;50.518;7.318;2023-04-25T15:19:04;4.50;;;2.53;;
3916;SDS011;1973;50.518;7.318;2023-04-25T15:21:31;5.57;;;3.00;;
3916;SDS011;1973;50.518;7.318;2023-04-25T15:23:58;5.37;;;2.70;;
3916;SDS011;1973;50.518;7.318;2023-04-25T15:26:24;5.63;;;2.20;;